Skip Navigation Links
NOAA logo - Click to go to the NOAA homepage
NOAA's National Weather Service
Alaska Aviation Weather Unit
  NWS logo - Click to go to the NWS homepage
Left Navbar Graphic     02 AKDT = 10 GMT

   
NOAA is celebrating 200 years of science, service, and stewardship. Visit the NOAA 200th celebration Web site to learn more.
USA.gov is the U.S. Government's official Web portal to all Federal, state and local government Web resources and services.
Facebook
NWS on Facebook

AAWU Home :: Display TAF Add Bookmark
METAR PATO 270453Z AUTO 00000KT 10SM OVC049 M06/M09 A2960 RMK AO2 SLP024
     T10611094 TSNO=

METAR PATO 270553Z AUTO 00000KT 10SM SCT050 M06/M09 A2959 RMK AO2 SLP022
     T10611094 11006 21061 56008 TSNO=

METAR PATO 270653Z AUTO 00000KT 10SM BKN049 M07/M11 A2958 RMK AO2 SLP019
     T10721106 TSNO=

METAR PATO 270753Z AUTO 00000KT 10SM OVC055 M08/M11 A2958 RMK AO2 SLP017
     T10831111 TSNO=

METAR PATO 270853Z AUTO 00000KT 10SM BKN055 OVC065 M09/M11 A2957 RMK AO2
     SLP014 T10891111 410061161 58008 TSNO=

METAR PATO 270953Z AUTO 00000KT 10SM OVC075 M11/M13 A2955 RMK AO2 SLP008
     T11111128 TSNO=


NOAA's National Weather Service
Alaska Aviation Weather Unit
6930 Sand Lake Road
Anchorage, AK 99502-1845
Disclaimer
Credits
Glossary
Privacy Policy
About Us
Career Opportunities
Contact AAWU Internet Services Site last modified: April, 17th 2012